Time;durP1;ratioP1;P1;durP2;ratioP2;P2;SDS_P1;SDS_P2;PMS_P1;PMS_P2;Temp;Humidity;BMP_temperature;BMP_pressure;BME280_temperature;BME280_humidity;BME280_pressure;Samples;Min_cycle;Max_cycle;Signal;HPM_P1;HPM_P2
2024/03/14 00:01:13;;;;;;;;;;;;;;;21.60;26.55;97402.22;4986814;28;1918;-80
2024/03/14 00:03:39;;;;;;;;;;;;;;;21.66;26.73;97400.41;5028520;28;971;-81
2024/03/14 00:06:04;;;;;;;;;;;;;;;21.71;26.23;97402.66;5043482;28;751;-81
2024/03/14 00:08:30;;;;;;;;;;;;;;;21.57;26.56;97392.63;5025194;28;845;-81
2024/03/14 00:10:56;;;;;;;;;;;;;;;21.77;26.36;97395.13;5044825;28;818;-81
2024/03/14 00:13:23;;;;;;;;;;;;;;;21.49;26.62;97379.16;5020457;28;913;-81
2024/03/14 00:15:49;;;;;;;;;;;;;;;21.71;26.27;97391.31;5021965;28;829;-80
2024/03/14 00:18:16;;;;;;;;;;;;;;;21.71;26.45;97390.50;5004564;28;787;-81
2024/03/14 00:20:42;;;;;;;;;;;;;;;21.70;26.58;97395.38;5022170;28;767;-80
2024/03/14 00:23:08;;;;;;;;;;;;;;;21.73;26.61;97391.63;5004555;28;1898;-81
2024/03/14 00:25:34;;;;;;;;;;;;;;;21.95;26.09;97382.34;5005652;28;842;-80
2024/03/14 00:28:00;;;;;;;;;;;;;;;21.93;26.28;97373.53;5004538;28;1179;-80
2024/03/14 00:30:27;;;;;;;;;;;;;;;21.59;26.75;97372.34;5005509;28;1128;-80
2024/03/14 00:32:52;;;;;;;;;;;;;;;21.58;26.42;97382.09;4982008;28;911;-81
2024/03/14 00:35:18;;;;;;;;;;;;;;;21.88;26.11;97382.63;4966347;28;992;-81
2024/03/14 00:37:44;;;;;;;;;;;;;;;21.76;26.35;97382.22;4966139;28;934;-81
2024/03/14 00:40:11;;;;;;;;;;;;;;;21.67;26.41;97382.16;4964772;28;796;-80
2024/03/14 00:42:37;;;;;;;;;;;;;;;21.71;26.32;97388.50;4982274;28;1985;-81
2024/03/14 00:45:04;;;;;;;;;;;;;;;21.56;26.63;97384.59;4981258;28;920;-80
2024/03/14 00:47:30;;;;;;;;;;;;;;;21.57;26.32;97380.50;4966769;28;999;-81
2024/03/14 00:49:55;;;;;;;;;;;;;;;21.54;26.40;97382.19;4981486;28;1219;-81
2024/03/14 00:52:21;;;;;;;;;;;;;;;21.77;26.23;97388.69;4982361;28;1046;-81
2024/03/14 00:54:47;;;;;;;;;;;;;;;21.82;26.42;97386.03;4981269;28;823;-80
2024/03/14 00:57:12;;;;;;;;;;;;;;;21.77;26.41;97389.47;4982313;28;1156;-80
2024/03/14 00:59:39;;;;;;;;;;;;;;;21.72;26.38;97387.22;4981656;28;899;-80
2024/03/14 01:02:06;;;;;;;;;;;;;;;21.72;26.60;97392.88;4982867;28;1987;-81
2024/03/14 01:04:31;;;;;;;;;;;;;;;21.85;26.30;97385.09;4996547;28;803;-81
2024/03/14 01:06:57;;;;;;;;;;;;;;;21.62;26.25;97391.25;5002062;28;835;-81
2024/03/14 01:09:24;;;;;;;;;;;;;;;21.66;26.65;97394.75;4984372;28;881;-81
2024/03/14 01:11:53;;;;;;;;;;;;;;;21.79;26.45;97386.97;5001758;28;783;-80
2024/03/14 01:14:19;;;;;;;;;;;;;;;21.86;26.21;97391.56;5000568;28;1184;-80
2024/03/14 01:16:44;;;;;;;;;;;;;;;21.95;26.29;97391.63;4982452;28;1350;-80
2024/03/14 01:19:11;;;;;;;;;;;;;;;21.77;26.59;97394.34;5026979;28;830;-81
2024/03/14 01:21:37;;;;;;;;;;;;;;;21.76;26.35;97393.56;5008248;28;1983;-81
2024/03/14 01:24:03;;;;;;;;;;;;;;;21.50;26.67;97395.72;5007411;28;914;-81
2024/03/14 01:26:29;;;;;;;;;;;;;;;21.53;26.50;97396.81;5024156;28;1209;-80
2024/03/14 01:28:55;;;;;;;;;;;;;;;21.65;26.46;97398.78;5007747;28;941;-80
2024/03/14 01:31:21;;;;;;;;;;;;;;;21.56;26.92;97390.25;5008290;28;941;-80
2024/03/14 01:33:47;;;;;;;;;;;;;;;21.70;26.79;97388.94;5039598;28;852;-81
2024/03/14 01:36:12;;;;;;;;;;;;;;;21.66;26.95;97382.59;5040731;28;758;-80
2024/03/14 01:38:38;;;;;;;;;;;;;;;21.84;26.64;97388.41;5023292;28;707;-81
2024/03/14 01:41:14;;;;;;;;;;;;;;;21.71;26.77;97387.66;5007815;28;1986;-80
2024/03/14 01:43:40;;;;;;;;;;;;;;;21.71;26.70;97387.66;5006597;28;1051;-81
2024/03/14 01:46:06;;;;;;;;;;;;;;;21.87;26.21;97386.72;5041020;28;759;-80
2024/03/14 01:48:32;;;;;;;;;;;;;;;21.67;26.60;97381.38;5039615;28;843;-81
2024/03/14 01:50:57;;;;;;;;;;;;;;;21.71;26.63;97385.66;5042468;28;758;-80
2024/03/14 01:53:23;;;;;;;;;;;;;;;21.66;26.95;97388.25;5039538;28;1189;-81
2024/03/14 01:55:49;;;;;;;;;;;;;;;21.62;26.78;97382.75;5041667;28;787;-80
2024/03/14 01:58:15;;;;;;;;;;;;;;;21.79;26.61;97392.63;5039736;28;823;-81
2024/03/14 02:00:43;;;;;;;;;;;;;;;21.87;26.49;97392.38;5009173;28;1219;-80
2024/03/14 02:03:09;;;;;;;;;;;;;;;21.78;26.85;97379.72;5023855;28;1902;-81
2024/03/14 02:05:39;;;;;;;;;;;;;;;21.47;26.92;97384.50;5020247;28;979;-80
2024/03/14 02:08:05;;;;;;;;;;;;;;;21.71;26.88;97385.66;5002871;28;783;-81
2024/03/14 02:10:30;;;;;;;;;;;;;;;21.54;26.94;97384.25;5020189;28;925;-80
2024/03/14 02:12:56;;;;;;;;;;;;;;;21.72;26.89;97386.44;5003550;28;1281;-81
2024/03/14 02:15:25;;;;;;;;;;;;;;;21.84;26.58;97383.53;5003290;28;938;-81
2024/03/14 02:17:50;;;;;;;;;;;;;;;21.72;26.81;97381.56;4971558;28;1056;-80
2024/03/14 02:20:16;;;;;;;;;;;;;;;22.03;26.50;97373.13;4987126;28;791;-81
2024/03/14 02:22:42;;;;;;;;;;;;;;;21.73;26.72;97377.47;4987034;28;1887;-80
2024/03/14 02:25:08;;;;;;;;;;;;;;;21.79;26.56;97386.97;4967144;28;1144;-81
2024/03/14 02:27:36;;;;;;;;;;;;;;;21.90;26.21;97383.72;4984104;28;1091;-80
2024/03/14 02:30:04;;;;;;;;;;;;;;;21.87;26.43;97375.38;4983444;28;1242;-81
2024/03/14 02:32:29;;;;;;;;;;;;;;;21.89;26.66;97381.38;4968598;28;1188;-81
2024/03/14 02:34:55;;;;;;;;;;;;;;;21.93;26.45;97382.03;4951099;28;1104;-81
2024/03/14 02:37:21;;;;;;;;;;;;;;;21.93;26.37;97379.97;5000481;28;875;-81
2024/03/14 02:39:47;;;;;;;;;;;;;;;21.94;26.49;97386.44;5019195;28;759;-80
2024/03/14 02:42:14;;;;;;;;;;;;;;;21.94;26.57;97380.75;5003496;28;2102;-81
2024/03/14 02:44:39;;;;;;;;;;;;;;;21.46;27.31;97380.91;5002541;28;743;-80
2024/03/14 02:47:07;;;;;;;;;;;;;;;21.32;27.18;97385.00;5003255;28;889;-80
2024/03/14 02:49:33;;;;;;;;;;;;;;;21.62;27.08;97382.75;5002744;28;774;-81
2024/03/14 02:51:59;;;;;;;;;;;;;;;21.76;26.51;97392.75;5003211;28;859;-80
2024/03/14 02:54:26;;;;;;;;;;;;;;;21.88;26.60;97399.63;4986725;28;1357;-81
2024/03/14 02:56:51;;;;;;;;;;;;;;;21.76;26.76;97390.72;5019997;28;849;-80
2024/03/14 02:59:17;;;;;;;;;;;;;;;21.71;26.78;97391.31;5002516;28;722;-81
2024/03/14 03:01:43;;;;;;;;;;;;;;;21.72;26.91;97390.06;5023316;28;1902;-81
2024/03/14 03:04:11;;;;;;;;;;;;;;;21.67;26.85;97387.81;4984484;28;807;-80
2024/03/14 03:06:48;;;;;;;;;;;;;;;21.56;27.01;97390.25;4972281;28;1587;-81
2024/03/14 03:09:14;;;;;;;;;;;;;;;21.47;27.01;97393.78;4955875;28;1147;-80
2024/03/14 03:11:41;;;;;;;;;;;;;;;21.91;26.39;97404.34;4971738;28;869;-81
2024/03/14 03:14:07;;;;;;;;;;;;;;;21.95;26.36;97405.00;4986618;28;1226;-81
2024/03/14 03:16:33;;;;;;;;;;;;;;;21.64;27.00;97397.22;4984256;28;1288;-80
2024/03/14 03:18:59;;;;;;;;;;;;;;;21.75;26.47;97402.50;4982928;28;795;-81
2024/03/14 03:21:25;;;;;;;;;;;;;;;21.55;27.01;97403.63;4984570;28;1977;-81
2024/03/14 03:23:50;;;;;;;;;;;;;;;21.76;26.70;97404.88;4966814;28;944;-81
2024/03/14 03:26:16;;;;;;;;;;;;;;;21.56;26.53;97407.25;4968423;28;1206;-80
2024/03/14 03:28:41;;;;;;;;;;;;;;;21.38;26.93;97407.06;4982792;28;1291;-81
2024/03/14 03:31:08;;;;;;;;;;;;;;;21.71;26.50;97405.47;4946662;29;1171;-81
2024/03/14 03:33:35;;;;;;;;;;;;;;;21.76;26.60;97404.88;4966326;28;1277;-81
2024/03/14 03:36:04;;;;;;;;;;;;;;;21.53;26.73;97411.75;4952702;28;1231;-81
2024/03/14 03:38:33;;;;;;;;;;;;;;;21.87;26.32;97415.03;4982447;28;770;-81
2024/03/14 03:40:59;;;;;;;;;;;;;;;21.75;26.74;97414.59;4984997;28;1918;-81
2024/03/14 03:43:26;;;;;;;;;;;;;;;21.83;26.61;97415.94;4982906;28;917;-80
2024/03/14 03:45:52;;;;;;;;;;;;;;;21.90;26.12;97419.75;4984807;28;822;-80
2024/03/14 03:48:17;;;;;;;;;;;;;;;22.00;25.91;97424.22;5014169;28;918;-80
2024/03/14 03:50:43;;;;;;;;;;;;;;;21.59;26.51;97423.28;5006746;28;823;-81
2024/03/14 03:53:08;;;;;;;;;;;;;;;21.89;26.14;97430.28;5021734;28;904;-80
2024/03/14 03:55:34;;;;;;;;;;;;;;;21.92;25.97;97422.94;5006011;28;787;-81
2024/03/14 03:58:00;;;;;;;;;;;;;;;21.67;26.56;97430.28;5025315;28;794;-80
2024/03/14 04:00:44;;;;;;;;;;;;;;;21.76;26.44;97430.38;4992716;28;758;-80
2024/03/14 04:03:11;;;;;;;;;;;;;;;21.83;26.37;97438.59;5027353;28;1907;-80
2024/03/14 04:05:37;;;;;;;;;;;;;;;21.85;26.12;97440.97;4974644;28;1128;-80
2024/03/14 04:08:04;;;;;;;;;;;;;;;21.81;26.37;97440.28;5014166;28;807;-81
2024/03/14 04:10:30;;;;;;;;;;;;;;;21.59;26.51;97434.63;5042864;28;778;-83
2024/03/14 04:12:56;;;;;;;;;;;;;;;21.78;26.04;97430.69;5042501;28;810;-81
2024/03/14 04:15:21;;;;;;;;;;;;;;;21.85;26.10;97436.09;5043743;28;723;-82
2024/03/14 04:17:48;;;;;;;;;;;;;;;21.48;26.75;97437.81;5025563;28;1348;-81
2024/03/14 04:20:14;;;;;;;;;;;;;;;21.59;26.61;97445.94;5025244;28;1119;-81
2024/03/14 04:22:40;;;;;;;;;;;;;;;21.71;26.50;97436.63;5004693;28;1979;-82
2024/03/14 04:25:13;;;;;;;;;;;;;;;21.72;26.10;97437.41;4984313;28;966;-82
2024/03/14 04:27:42;;;;;;;;;;;;;;;21.79;26.29;97445.63;4986087;28;1059;-81
2024/03/14 04:30:11;;;;;;;;;;;;;;;21.55;26.45;97445.25;5000837;28;1048;-82
2024/03/14 04:32:38;;;;;;;;;;;;;;;21.33;26.79;97448.84;4985610;28;861;-82
2024/03/14 04:35:04;;;;;;;;;;;;;;;21.71;26.05;97445.13;5000405;28;910;-81
2024/03/14 04:37:29;;;;;;;;;;;;;;;21.80;26.07;97442.34;4985210;28;1206;-81
2024/03/14 04:39:55;;;;;;;;;;;;;;;21.58;26.37;97410.38;5000635;28;819;-82
2024/03/14 04:42:21;;;;;;;;;;;;;;;21.88;25.86;97451.38;4985328;28;1957;-82
2024/03/14 04:44:47;;;;;;;;;;;;;;;21.91;26.21;97455.31;4985462;28;860;-82
2024/03/14 04:47:12;;;;;;;;;;;;;;;22.04;25.92;97458.91;4985524;28;1183;-82
2024/03/14 04:49:38;;;;;;;;;;;;;;;21.78;25.92;97464.66;4984575;28;1168;-81
2024/03/14 04:52:04;;;;;;;;;;;;;;;21.83;25.90;97461.25;5002287;28;858;-81
2024/03/14 04:54:32;;;;;;;;;;;;;;;21.79;26.09;97465.47;4987747;28;957;-82
2024/03/14 04:57:01;;;;;;;;;;;;;;;21.62;26.35;97462.03;5036833;28;1128;-81
2024/03/14 04:59:27;;;;;;;;;;;;;;;21.65;26.51;97465.97;5020136;28;904;-81
2024/03/14 05:01:53;;;;;;;;;;;;;;;21.59;26.28;97468.59;4987959;28;1983;-82
2024/03/14 05:04:19;;;;;;;;;;;;;;;21.82;26.27;97475.88;4987386;28;1136;-82
2024/03/14 05:06:45;;;;;;;;;;;;;;;21.70;26.47;97474.66;5020596;28;996;-81
2024/03/14 05:09:11;;;;;;;;;;;;;;;21.75;26.23;97476.91;4987467;28;1194;-81
2024/03/14 05:11:37;;;;;;;;;;;;;;;21.65;26.37;97478.06;5024187;28;1094;-82
2024/03/14 05:14:06;;;;;;;;;;;;;;;21.70;26.29;97490.84;5007086;28;945;-81
2024/03/14 05:16:34;;;;;;;;;;;;;;;21.79;25.89;97482.44;5023443;28;1308;-81
2024/03/14 05:19:00;;;;;;;;;;;;;;;21.76;25.93;97484.19;5022087;28;727;-81
2024/03/14 05:21:26;;;;;;;;;;;;;;;21.73;26.04;97484.28;4990390;28;1991;-82
2024/03/14 05:23:51;;;;;;;;;;;;;;;21.94;25.96;97485.56;5002215;28;908;-81
2024/03/14 05:26:18;;;;;;;;;;;;;;;21.76;25.81;97495.50;5018946;28;1081;-82
2024/03/14 05:28:43;;;;;;;;;;;;;;;21.62;26.14;97490.34;5001994;28;810;-81
2024/03/14 05:31:09;;;;;;;;;;;;;;;21.76;25.81;97501.16;5019503;28;851;-81
2024/03/14 05:33:35;;;;;;;;;;;;;;;21.78;25.96;97495.03;5001614;28;708;-81
2024/03/14 05:36:01;;;;;;;;;;;;;;;21.61;26.24;97494.41;5003459;28;1176;-81
2024/03/14 05:38:26;;;;;;;;;;;;;;;21.58;26.49;97490.44;4985387;28;799;-81
2024/03/14 05:40:52;;;;;;;;;;;;;;;21.77;26.13;97497.06;4986400;28;897;-81
2024/03/14 05:43:19;;;;;;;;;;;;;;;21.57;26.37;97494.53;5017194;28;1906;-82
2024/03/14 05:45:45;;;;;;;;;;;;;;;21.65;26.33;97503.56;5022755;28;736;-81
2024/03/14 05:48:13;;;;;;;;;;;;;;;21.83;26.02;97500.13;5037937;28;929;-81
2024/03/14 05:50:39;;;;;;;;;;;;;;;21.65;26.07;97499.94;5022256;28;770;-81
2024/03/14 05:53:05;;;;;;;;;;;;;;;21.90;25.91;97504.72;5005308;28;751;-82
2024/03/14 05:55:30;;;;;;;;;;;;;;;21.73;26.17;97507.72;5038910;28;947;-82
2024/03/14 05:57:56;;;;;;;;;;;;;;;21.94;25.99;97511.06;5038475;28;727;-81
2024/03/14 06:00:22;;;;;;;;;;;;;;;21.77;26.06;97508.41;5022176;28;781;-81
2024/03/14 06:02:47;;;;;;;;;;;;;;;21.55;26.29;97514.03;5039425;28;1976;-82
2024/03/14 06:05:14;;;;;;;;;;;;;;;21.80;25.84;97518.81;5039415;28;759;-82
2024/03/14 06:07:40;;;;;;;;;;;;;;;21.96;25.79;97515.00;5023040;28;1150;-81
2024/03/14 06:10:07;;;;;;;;;;;;;;;21.80;25.96;97524.47;5038941;28;747;-82
2024/03/14 06:12:33;;;;;;;;;;;;;;;21.89;25.68;97526.59;5039162;28;1042;-81
2024/03/14 06:14:59;;;;;;;;;;;;;;;22.01;25.48;97527.78;5039204;28;747;-81
2024/03/14 06:17:25;;;;;;;;;;;;;;;21.89;25.73;97525.81;5040843;28;762;-82
2024/03/14 06:19:51;;;;;;;;;;;;;;;21.87;25.95;97522.66;5039831;28;841;-81
2024/03/14 06:22:16;;;;;;;;;;;;;;;21.49;26.15;97532.03;5040753;28;1906;-81
2024/03/14 06:24:43;;;;;;;;;;;;;;;21.58;26.11;97534.94;5038734;28;847;-81
2024/03/14 06:27:12;;;;;;;;;;;;;;;21.37;26.54;97535.66;5039159;28;1033;-82
2024/03/14 06:29:38;;;;;;;;;;;;;;;21.61;26.27;97545.38;5039083;28;786;-81
2024/03/14 06:32:04;;;;;;;;;;;;;;;21.70;26.18;97550.31;5039597;28;842;-81
2024/03/14 06:34:30;;;;;;;;;;;;;;;21.93;25.65;97549.94;5022259;28;783;-81
2024/03/14 06:36:57;;;;;;;;;;;;;;;21.94;25.52;97554.34;5039232;28;766;-82
2024/03/14 06:39:25;;;;;;;;;;;;;;;21.82;25.88;97560.84;5038112;28;913;-81
2024/03/14 06:41:52;;;;;;;;;;;;;;;21.38;26.45;97555.03;5039268;28;1882;-81
2024/03/14 06:44:18;;;;;;;;;;;;;;;21.38;26.42;97569.16;5038550;28;731;-81
2024/03/14 06:46:43;;;;;;;;;;;;;;;21.60;26.33;97560.75;5005840;28;935;-81
2024/03/14 06:49:12;;;;;;;;;;;;;;;21.75;25.90;97567.53;5039327;28;917;-81
2024/03/14 06:51:38;;;;;;;;;;;;;;;21.76;25.78;97571.97;5023249;28;806;-81
2024/03/14 06:54:04;;;;;;;;;;;;;;;21.79;25.97;97576.69;5021364;28;1125;-81
2024/03/14 06:56:30;;;;;;;;;;;;;;;21.82;25.89;97575.78;5039509;28;886;-82
2024/03/14 06:58:56;;;;;;;;;;;;;;;21.84;25.70;97581.00;5021947;28;735;-81
2024/03/14 07:01:21;;;;;;;;;;;;;;;21.67;25.98;97577.53;5022810;28;1894;-82
2024/03/14 07:03:47;;;;;;;;;;;;;;;21.42;26.08;97588.88;5037955;28;842;-81
2024/03/14 07:06:14;;;;;;;;;;;;;;;21.45;26.14;97587.94;5017953;28;1002;-81
2024/03/14 07:08:42;;;;;;;;;;;;;;;21.91;25.71;97585.63;5016411;28;965;-82
2024/03/14 07:11:11;;;;;;;;;;;;;;;21.78;25.88;97583.63;4986216;28;941;-82
2024/03/14 07:13:37;;;;;;;;;;;;;;;21.78;26.04;97586.44;4984555;28;840;-81
2024/03/14 07:16:09;;;;;;;;;;;;;;;21.85;25.79;97586.19;5018479;28;890;-81
2024/03/14 07:18:36;;;;;;;;;;;;;;;21.79;26.07;97598.56;4984961;28;806;-82
2024/03/14 07:21:03;;;;;;;;;;;;;;;21.69;25.91;97603.34;5018048;28;1969;-80
2024/03/14 07:23:31;;;;;;;;;;;;;;;21.62;26.13;97597.91;5016999;28;782;-81
2024/03/14 07:26:01;;;;;;;;;;;;;;;21.44;26.31;97594.88;5001807;28;841;-82
2024/03/14 07:28:28;;;;;;;;;;;;;;;21.92;25.90;97592.88;5000142;28;1062;-81
2024/03/14 07:30:55;;;;;;;;;;;;;;;21.88;25.75;97597.88;5002261;28;1305;-81
2024/03/14 07:33:20;;;;;;;;;;;;;;;21.81;25.97;97604.56;4984610;28;1132;-82
2024/03/14 07:35:48;;;;;;;;;;;;;;;21.91;25.91;97599.78;5018197;28;861;-82
2024/03/14 07:38:14;;;;;;;;;;;;;;;21.99;25.79;97603.97;5018836;28;1234;-82
2024/03/14 07:40:40;;;;;;;;;;;;;;;21.71;25.98;97612.19;5022305;28;711;-82
2024/03/14 07:43:08;;;;;;;;;;;;;;;21.60;25.93;97617.38;5038031;28;1909;-82
2024/03/14 07:45:34;;;;;;;;;;;;;;;21.53;26.14;97617.63;5038718;28;778;-82
2024/03/14 07:47:59;;;;;;;;;;;;;;;21.84;26.00;97607.28;5038274;28;823;-81
2024/03/14 07:50:25;;;;;;;;;;;;;;;21.77;25.89;97616.03;5041551;28;880;-81
2024/03/14 07:52:51;;;;;;;;;;;;;;;21.87;25.96;97610.47;5042893;28;755;-81
2024/03/14 07:55:17;;;;;;;;;;;;;;;21.84;25.76;97618.59;5042631;28;798;-82
2024/03/14 07:57:42;;;;;;;;;;;;;;;21.80;25.71;97620.75;5041886;28;803;-82
2024/03/14 08:00:08;;;;;;;;;;;;;;;21.60;26.15;97617.38;5024693;28;810;-81
2024/03/14 08:02:34;;;;;;;;;;;;;;;21.43;26.08;97615.94;5043109;28;1957;-81
2024/03/14 08:05:06;;;;;;;;;;;;;;;21.69;26.13;97625.19;5024809;28;824;-82
2024/03/14 08:07:33;;;;;;;;;;;;;;;21.88;25.87;97623.38;5042485;28;743;-82
2024/03/14 08:10:18;;;;;;;;;;;;;;;21.70;25.87;97626.78;5024905;28;1223;-82
2024/03/14 08:12:44;;;;;;;;;;;;;;;21.80;25.96;97626.41;5003533;28;891;-82
2024/03/14 08:15:24;;;;;;;;;;;;;;;21.92;25.77;97621.22;4987634;28;1267;-81
2024/03/14 08:17:52;;;;;;;;;;;;;;;21.72;25.76;97625.09;5003703;28;891;-82
2024/03/14 08:20:21;;;;;;;;;;;;;;;21.75;25.85;97632.66;5004381;28;811;-82
2024/03/14 08:22:52;;;;;;;;;;;;;;;21.46;26.38;97635.63;5004898;28;1975;-82
2024/03/14 08:25:24;;;;;;;;;;;;;;;21.54;26.34;97631.31;5004142;28;814;-82
2024/03/14 08:27:51;;;;;;;;;;;;;;;21.53;26.30;97634.59;4986480;28;1047;-81
2024/03/14 08:30:17;;;;;;;;;;;;;;;21.77;26.15;97646.38;5000681;28;745;-82
2024/03/14 08:32:43;;;;;;;;;;;;;;;22.01;25.43;97635.44;4984302;28;956;-82
2024/03/14 08:35:10;;;;;;;;;;;;;;;21.88;25.80;97643.19;5000719;28;755;-81
2024/03/14 08:37:36;;;;;;;;;;;;;;;21.76;25.78;97639.94;4984544;28;951;-81
2024/03/14 08:40:05;;;;;;;;;;;;;;;21.49;26.11;97639.59;5017124;28;859;-81
2024/03/14 08:42:33;;;;;;;;;;;;;;;21.36;26.43;97641.63;5004438;28;1906;-81
2024/03/14 08:45:00;;;;;;;;;;;;;;;21.81;25.96;97639.34;5040928;28;798;-82
2024/03/14 08:47:27;;;;;;;;;;;;;;;21.73;25.91;97638.00;5041877;28;806;-81
2024/03/14 08:49:52;;;;;;;;;;;;;;;22.04;25.68;97634.53;5019844;28;815;-81
2024/03/14 08:52:21;;;;;;;;;;;;;;;21.77;26.01;97635.84;4988079;28;1103;-82
2024/03/14 08:54:47;;;;;;;;;;;;;;;21.82;26.02;97640.16;5003839;28;799;-81
2024/03/14 08:57:12;;;;;;;;;;;;;;;21.92;25.63;97639.00;5004075;28;803;-81
2024/03/14 08:59:39;;;;;;;;;;;;;;;21.90;25.75;97646.34;5019825;28;763;-82
2024/03/14 09:02:09;;;;;;;;;;;;;;;21.82;25.91;97632.44;5003602;28;1879;-81
2024/03/14 09:04:35;;;;;;;;;;;;;;;21.19;26.91;97644.53;4987216;28;1413;-82
2024/03/14 09:07:01;;;;;;;;;;;;;;;21.54;26.33;97639.03;5004191;28;926;-82
2024/03/14 09:09:35;;;;;;;;;;;;;;;21.69;26.29;97636.53;4999865;28;934;-81
2024/03/14 09:12:13;;;;;;;;;;;;;;;21.76;25.89;97642.75;5000411;28;1130;-82
2024/03/14 09:14:40;;;;;;;;;;;;;;;21.65;26.47;97647.94;4983419;28;1195;-82
2024/03/14 09:17:05;;;;;;;;;;;;;;;21.65;26.41;97642.28;5000313;28;904;-81
2024/03/14 09:19:31;;;;;;;;;;;;;;;21.71;26.19;97648.19;4999207;28;917;-81
2024/03/14 09:21:57;;;;;;;;;;;;;;;21.28;26.79;97641.81;5000704;28;1914;-82
2024/03/14 09:24:23;;;;;;;;;;;;;;;21.31;26.60;97646.59;4999584;28;954;-82
2024/03/14 09:26:49;;;;;;;;;;;;;;;21.44;26.68;97643.78;5000650;28;1606;-82
2024/03/14 09:29:15;;;;;;;;;;;;;;;21.55;26.33;97640.59;5000019;28;806;-81
2024/03/14 09:31:46;;;;;;;;;;;;;;;21.68;26.14;97647.06;4999876;28;736;-82
2024/03/14 09:34:12;;;;;;;;;;;;;;;21.61;26.50;97647.31;4983607;28;934;-82
2024/03/14 09:36:37;;;;;;;;;;;;;;;21.85;26.27;97640.00;5000466;28;770;-82
2024/03/14 09:39:13;;;;;;;;;;;;;;;21.76;26.33;97647.59;4999071;28;894;-82
2024/03/14 09:41:41;;;;;;;;;;;;;;;21.56;26.50;97645.03;4983633;28;1946;-82
2024/03/14 09:44:07;;;;;;;;;;;;;;;21.01;27.28;97650.72;4982821;28;811;-81
2024/03/14 09:46:34;;;;;;;;;;;;;;;21.44;26.87;97638.09;5036358;28;835;-81
2024/03/14 09:49:01;;;;;;;;;;;;;;;21.71;26.38;97648.19;5039597;28;712;-82
2024/03/14 09:51:27;;;;;;;;;;;;;;;21.77;26.24;97649.22;5023812;28;747;-82
2024/03/14 09:53:54;;;;;;;;;;;;;;;21.68;26.26;97649.88;5022895;28;1154;-81
2024/03/14 09:56:19;;;;;;;;;;;;;;;21.77;26.19;97647.16;5040749;28;822;-82
2024/03/14 09:58:45;;;;;;;;;;;;;;;21.41;26.69;97639.03;5038564;28;735;-81
2024/03/14 10:01:11;;;;;;;;;;;;;;;21.17;27.21;97647.00;5040548;28;1954;-82
2024/03/14 10:03:38;;;;;;;;;;;;;;;21.31;27.18;97660.75;5038948;28;703;-82
2024/03/14 10:06:15;;;;;;;;;;;;;;;21.66;26.40;97649.56;5041313;28;763;-81
2024/03/14 10:08:44;;;;;;;;;;;;;;;21.83;26.04;97653.84;5038390;28;763;-82
2024/03/14 10:11:13;;;;;;;;;;;;;;;21.82;26.42;97645.81;5024001;28;1104;-82
2024/03/14 10:13:40;;;;;;;;;;;;;;;21.87;26.16;97652.94;5038429;28;833;-81
2024/03/14 10:16:05;;;;;;;;;;;;;;;21.78;26.10;97648.75;5041531;28;901;-82
2024/03/14 10:18:32;;;;;;;;;;;;;;;21.40;26.68;97656.44;5039818;28;759;-82
2024/03/14 10:20:57;;;;;;;;;;;;;;;21.37;27.12;97646.03;5007254;28;1099;-81
2024/03/14 10:23:25;;;;;;;;;;;;;;;21.55;26.91;97652.75;5022061;28;1966;-82
2024/03/14 10:25:53;;;;;;;;;;;;;;;21.82;26.47;97657.94;5024042;28;1460;-81
2024/03/14 10:28:20;;;;;;;;;;;;;;;21.66;26.46;97652.41;5038305;28;1204;-81
2024/03/14 10:31:02;;;;;;;;;;;;;;;21.95;26.23;97648.59;5022979;28;818;-81
2024/03/14 10:33:28;;;;;;;;;;;;;;;21.74;26.23;97656.56;5039488;28;802;-82
2024/03/14 10:35:55;;;;;;;;;;;;;;;21.55;26.57;97654.75;5023761;28;1280;-81
2024/03/14 10:38:25;;;;;;;;;;;;;;;21.44;26.49;97652.25;5005921;28;1110;-82
2024/03/14 10:40:51;;;;;;;;;;;;;;;21.68;26.59;97646.28;4999988;28;798;-82
2024/03/14 10:43:17;;;;;;;;;;;;;;;21.75;26.45;97646.81;4965847;28;1886;-82
2024/03/14 10:45:43;;;;;;;;;;;;;;;21.78;26.36;97656.47;4966806;28;1400;-82
2024/03/14 10:48:08;;;;;;;;;;;;;;;21.81;26.48;97650.69;4982059;28;804;-81
2024/03/14 10:50:34;;;;;;;;;;;;;;;21.95;26.38;97648.59;4966462;28;1263;-82
2024/03/14 10:53:00;;;;;;;;;;;;;;;21.75;26.23;97649.66;4998625;28;918;-82
2024/03/14 10:55:30;;;;;;;;;;;;;;;21.50;26.41;97652.47;4966513;28;935;-82
2024/03/14 10:57:57;;;;;;;;;;;;;;;21.12;27.30;97656.06;4982406;28;720;-82
2024/03/14 11:00:23;;;;;;;;;;;;;;;21.65;26.39;97653.63;4959989;29;923;-82
2024/03/14 11:02:49;;;;;;;;;;;;;;;21.76;26.23;97650.44;4920872;29;1956;-82
2024/03/14 11:05:17;;;;;;;;;;;;;;;21.77;26.24;97655.66;4905047;29;901;-81
2024/03/14 11:07:43;;;;;;;;;;;;;;;21.76;26.13;97651.25;4906870;29;942;-82
2024/03/14 11:10:19;;;;;;;;;;;;;;;21.73;26.56;97654.97;4883453;29;934;-82
2024/03/14 11:12:47;;;;;;;;;;;;;;;21.75;26.36;97658.13;4884483;29;1162;-82
2024/03/14 11:15:13;;;;;;;;;;;;;;;21.12;27.16;97658.88;4886708;29;828;-82
2024/03/14 11:17:40;;;;;;;;;;;;;;;21.44;26.71;97648.66;4887093;29;1188;-81
2024/03/14 11:20:09;;;;;;;;;;;;;;;21.51;26.86;97654.09;4901714;29;808;-81
2024/03/14 11:22:37;;;;;;;;;;;;;;;21.64;26.50;97646.38;4902906;29;1980;-82
2024/03/14 11:25:03;;;;;;;;;;;;;;;21.66;26.29;97655.22;4887628;29;776;-81
2024/03/14 11:27:29;;;;;;;;;;;;;;;21.61;26.51;97658.63;4906047;29;1041;-82
2024/03/14 11:29:54;;;;;;;;;;;;;;;21.73;26.59;97660.66;4891434;29;919;-81
2024/03/14 11:32:30;;;;;;;;;;;;;;;21.98;26.09;97653.38;4909800;29;897;-81
2024/03/14 11:34:58;;;;;;;;;;;;;;;21.61;26.57;97652.19;4961271;29;1256;-81
2024/03/14 11:37:23;;;;;;;;;;;;;;;21.41;26.51;97652.41;4947956;29;756;-81
2024/03/14 11:39:49;;;;;;;;;;;;;;;21.31;26.95;97663.59;4962759;29;1164;-82
2024/03/14 11:42:15;;;;;;;;;;;;;;;21.57;26.69;97664.41;4999857;28;1910;-81
2024/03/14 11:44:45;;;;;;;;;;;;;;;21.60;26.42;97657.00;4984985;28;883;-81
2024/03/14 11:47:18;;;;;;;;;;;;;;;21.69;26.42;97667.66;4986029;28;831;-81
2024/03/14 11:49:44;;;;;;;;;;;;;;;21.79;26.41;97670.16;4986089;28;748;-81
2024/03/14 11:52:14;;;;;;;;;;;;;;;21.92;26.11;97672.19;4982295;28;1150;-82
2024/03/14 11:54:41;;;;;;;;;;;;;;;22.08;25.71;97677.72;4965418;28;1093;-81
2024/03/14 11:57:14;;;;;;;;;;;;;;;21.62;26.37;97665.88;4950717;28;1259;-81
2024/03/14 11:59:41;;;;;;;;;;;;;;;21.53;26.53;97674.25;4949897;28;827;-81
2024/03/14 12:02:07;;;;;;;;;;;;;;;21.67;26.19;97668.13;4981877;28;1985;-81
2024/03/14 12:04:35;;;;;;;;;;;;;;;21.77;26.04;97667.00;4965271;28;899;-81
2024/03/14 12:07:03;;;;;;;;;;;;;;;21.84;25.92;97674.47;4987192;28;1245;-82
2024/03/14 12:09:31;;;;;;;;;;;;;;;21.96;25.59;97675.69;5003978;28;948;-81
2024/03/14 12:11:57;;;;;;;;;;;;;;;21.62;26.42;97676.41;4981730;28;911;-81
2024/03/14 12:14:22;;;;;;;;;;;;;;;21.56;26.33;97673.34;4945340;29;874;-82
2024/03/14 12:16:49;;;;;;;;;;;;;;;21.59;26.17;97678.09;4962284;28;937;-81
2024/03/14 12:19:18;;;;;;;;;;;;;;;21.57;26.49;97678.56;4930074;29;1370;-81
2024/03/14 12:21:43;;;;;;;;;;;;;;;21.65;26.20;97679.09;4958349;29;1907;-81
2024/03/14 12:24:13;;;;;;;;;;;;;;;21.71;25.92;97680.13;4924722;29;857;-81
2024/03/14 12:26:39;;;;;;;;;;;;;;;21.75;26.15;97686.47;4939843;29;1112;-82
2024/03/14 12:29:05;;;;;;;;;;;;;;;21.76;26.15;97688.06;4923751;29;912;-81
2024/03/14 12:31:31;;;;;;;;;;;;;;;21.80;25.84;97688.72;4924404;29;871;-81
2024/03/14 12:33:58;;;;;;;;;;;;;;;21.38;26.39;97695.75;4923105;29;829;-82
2024/03/14 12:36:25;;;;;;;;;;;;;;;21.51;26.41;97690.91;4923880;29;894;-82
2024/03/14 12:38:50;;;;;;;;;;;;;;;21.85;25.82;97696.66;4961654;28;1113;-81
2024/03/14 12:41:16;;;;;;;;;;;;;;;21.39;26.48;97691.66;4977566;28;1918;-81
2024/03/14 12:43:42;;;;;;;;;;;;;;;21.46;26.60;97688.63;4979734;28;905;-81
2024/03/14 12:46:10;;;;;;;;;;;;;;;21.71;26.07;97685.81;4981491;28;916;-81
2024/03/14 12:48:36;;;;;;;;;;;;;;;21.81;25.97;97689.50;4983499;28;780;-81
2024/03/14 12:51:12;;;;;;;;;;;;;;;21.30;26.88;97698.78;4984774;28;927;-81
2024/03/14 12:53:37;;;;;;;;;;;;;;;21.39;26.57;97691.66;4983292;28;814;-82
2024/03/14 12:56:04;;;;;;;;;;;;;;;21.63;26.23;97695.75;5000741;28;779;-81
2024/03/14 12:58:30;;;;;;;;;;;;;;;21.81;26.23;97700.84;4998916;28;945;-81
2024/03/14 13:00:58;;;;;;;;;;;;;;;21.61;26.43;97697.47;5000824;28;845;-81